Time;durP1;ratioP1;P1;durP2;ratioP2;P2;SDS_P1;SDS_P2;PMS_P1;PMS_P2;Temp;Humidity;BMP_temperature;BMP_pressure;BME280_temperature;BME280_humidity;BME280_pressure;Samples;Min_cycle;Max_cycle;Signal;HPM_P1;HPM_P2
2022/09/16 00:01:32;;;;;;;6.32;2.90;;;;;;;;;;5087758;27;92507;-69
2022/09/16 00:03:58;;;;;;;6.82;1.85;;;;;;;;;;5098293;27;93025;-69
2022/09/16 00:06:26;;;;;;;8.65;1.70;;;;;;;;;;5098675;27;93182;-69
2022/09/16 00:08:56;;;;;;;4.68;1.80;;;;;;;;;;5097865;27;91757;-69
2022/09/16 00:11:23;;;;;;;6.70;1.58;;;;;;;;;;5098867;27;93344;-69
2022/09/16 00:13:49;;;;;;;9.85;2.92;;;;;;;;;;5097422;27;93154;-69
2022/09/16 00:16:20;;;;;;;6.47;1.95;;;;;;;;;;5097122;27;94884;-69
2022/09/16 00:18:46;;;;;;;7.38;1.98;;;;;;;;;;5099147;27;95454;-69
2022/09/16 00:21:12;;;;;;;7.93;2.10;;;;;;;;;;5095512;27;92512;-69
2022/09/16 00:23:39;;;;;;;5.20;1.75;;;;;;;;;;5078088;27;92918;-69
2022/09/16 00:26:05;;;;;;;6.05;1.80;;;;;;;;;;5077626;27;94300;-69
2022/09/16 00:28:31;;;;;;;8.85;1.77;;;;;;;;;;5076573;27;92422;-68
2022/09/16 00:31:01;;;;;;;7.63;2.08;;;;;;;;;;5077171;27;94018;-69
2022/09/16 00:33:27;;;;;;;3.72;1.55;;;;;;;;;;5077425;27;92541;-69
2022/09/16 00:36:09;;;;;;;4.45;1.83;;;;;;;;;;5090703;27;92517;-69
2022/09/16 00:38:36;;;;;;;7.97;1.83;;;;;;;;;;5098349;27;94053;-68
2022/09/16 00:41:02;;;;;;;10.93;1.75;;;;;;;;;;5098411;27;95522;-68
2022/09/16 00:43:45;;;;;;;6.57;1.92;;;;;;;;;;5097318;27;96268;-68
2022/09/16 00:46:11;;;;;;;6.82;2.25;;;;;;;;;;5098220;27;94264;-69
2022/09/16 00:48:38;;;;;;;7.00;2.30;;;;;;;;;;5097240;27;92505;-68
2022/09/16 00:51:08;;;;;;;9.27;1.98;;;;;;;;;;5095451;27;92890;-69
2022/09/16 00:53:38;;;;;;;11.98;2.00;;;;;;;;;;5077299;27;94346;-69
2022/09/16 00:56:10;;;;;;;2.92;1.27;;;;;;;;;;5085467;27;92413;-69
2022/09/16 00:58:40;;;;;;;5.05;1.50;;;;;;;;;;5097151;27;93001;-68
2022/09/16 01:01:06;;;;;;;15.57;2.03;;;;;;;;;;5096348;27;93253;-68
2022/09/16 01:03:36;;;;;;;7.28;1.42;;;;;;;;;;5080870;27;92526;-68
2022/09/16 01:06:03;;;;;;;6.53;2.00;;;;;;;;;;5075143;27;96744;-68
2022/09/16 01:08:29;;;;;;;4.50;1.45;;;;;;;;;;5078948;27;92427;-68
2022/09/16 01:10:56;;;;;;;5.65;1.67;;;;;;;;;;5095579;27;92960;-68
2022/09/16 01:13:23;;;;;;;6.18;2.08;;;;;;;;;;5096730;27;93524;-68
2022/09/16 01:16:05;;;;;;;6.55;1.42;;;;;;;;;;5096394;27;92447;-68
2022/09/16 01:18:41;;;;;;;10.60;1.95;;;;;;;;;;5096140;27;93175;-68
2022/09/16 01:21:26;;;;;;;7.30;2.05;;;;;;;;;;5093748;27;93214;-68
2022/09/16 01:24:04;;;;;;;10.90;2.72;;;;;;;;;;5076269;27;91697;-68
2022/09/16 01:26:31;;;;;;;5.75;1.40;;;;;;;;;;5079463;27;93138;-68
2022/09/16 01:29:00;;;;;;;7.43;1.60;;;;;;;;;;5075815;27;92466;-68
2022/09/16 01:31:46;;;;;;;7.78;1.73;;;;;;;;;;5078238;27;95512;-70
2022/09/16 01:34:28;;;;;;;3.67;1.38;;;;;;;;;;5096482;27;93298;-68
2022/09/16 01:36:57;;;;;;;3.38;1.23;;;;;;;;;;5082771;27;92469;-70
2022/09/16 01:39:33;;;;;;;7.15;1.40;;;;;;;;;;5076008;27;94084;-68
2022/09/16 01:42:19;;;;;;;8.13;1.48;;;;;;;;;;5076228;27;95090;-68
2022/09/16 01:44:51;;;;;;;4.32;1.13;;;;;;;;;;5075573;27;92499;-68
2022/09/16 01:47:36;;;;;;;3.47;1.35;;;;;;;;;;5077772;27;92931;-68
2022/09/16 01:50:02;;;;;;;8.25;1.73;;;;;;;;;;5076553;27;92228;-68
2022/09/16 01:52:34;;;;;;;8.02;1.95;;;;;;;;;;5075845;27;93295;-68
2022/09/16 01:55:03;;;;;;;7.13;1.33;;;;;;;;;;5090743;27;93288;-68
2022/09/16 01:57:32;;;;;;;11.75;1.75;;;;;;;;;;5074835;27;94764;-68
2022/09/16 02:00:05;;;;;;;6.68;1.48;;;;;;;;;;5081048;27;95721;-68
2022/09/16 02:02:43;;;;;;;5.68;1.33;;;;;;;;;;5096676;27;94352;-68
2022/09/16 02:05:15;;;;;;;5.70;1.52;;;;;;;;;;5095963;27;92587;-68
2022/09/16 02:07:45;;;;;;;3.85;1.38;;;;;;;;;;5094794;27;92948;-68
2022/09/16 02:10:21;;;;;;;6.38;1.60;;;;;;;;;;5098520;27;93224;-68
2022/09/16 02:12:49;;;;;;;8.18;2.55;;;;;;;;;;5096616;27;94066;-68
2022/09/16 02:15:20;;;;;;;7.85;1.48;;;;;;;;;;5096367;27;93640;-68
2022/09/16 02:17:50;;;;;;;6.80;1.85;;;;;;;;;;5095481;27;92546;-68
2022/09/16 02:20:18;;;;;;;8.23;1.58;;;;;;;;;;5096565;27;93915;-68
2022/09/16 02:22:47;;;;;;;5.53;1.33;;;;;;;;;;5092689;27;96711;-69
2022/09/16 02:25:17;;;;;;;4.68;1.52;;;;;;;;;;5096516;27;92439;-68
2022/09/16 02:27:45;;;;;;;7.40;1.30;;;;;;;;;;5094742;27;93407;-68
2022/09/16 02:30:15;;;;;;;9.27;2.15;;;;;;;;;;5095915;27;93254;-68
2022/09/16 02:32:46;;;;;;;4.38;1.60;;;;;;;;;;5099584;27;92374;-69
2022/09/16 02:35:15;;;;;;;8.60;2.67;;;;;;;;;;5093622;27;93148;-68
2022/09/16 02:37:45;;;;;;;4.97;1.80;;;;;;;;;;5096153;27;92410;-69
2022/09/16 02:40:16;;;;;;;3.95;1.48;;;;;;;;;;5096054;27;92900;-68
2022/09/16 02:42:42;;;;;;;5.97;1.92;;;;;;;;;;5094252;27;92604;-68
2022/09/16 02:45:09;;;;;;;10.10;1.60;;;;;;;;;;5095236;27;92527;-70
2022/09/16 02:47:41;;;;;;;8.65;1.42;;;;;;;;;;5094013;27;94821;-70
2022/09/16 02:50:07;;;;;;;9.00;1.80;;;;;;;;;;5094107;27;93306;-70
2022/09/16 02:52:34;;;;;;;8.10;1.38;;;;;;;;;;5078814;27;93440;-70
2022/09/16 02:55:04;;;;;;;22.10;2.50;;;;;;;;;;5078333;27;93956;-70
2022/09/16 02:57:30;;;;;;;8.75;1.63;;;;;;;;;;5094711;27;93085;-70
2022/09/16 02:59:56;;;;;;;9.48;1.70;;;;;;;;;;5095858;27;93948;-70
2022/09/16 03:02:23;;;;;;;2.78;1.50;;;;;;;;;;5094955;27;92778;-69
2022/09/16 03:04:49;;;;;;;5.35;1.70;;;;;;;;;;5095669;27;91555;-68
2022/09/16 03:07:16;;;;;;;10.27;2.15;;;;;;;;;;5095311;27;93345;-69
2022/09/16 03:09:43;;;;;;;5.63;2.30;;;;;;;;;;5073237;27;92920;-71
2022/09/16 03:12:29;;;;;;;9.77;1.70;;;;;;;;;;5073718;27;94961;-70
2022/09/16 03:15:01;;;;;;;10.77;1.73;;;;;;;;;;5074399;27;95491;-69
2022/09/16 03:17:47;;;;;;;4.95;1.35;;;;;;;;;;5077730;27;94020;-70
2022/09/16 03:20:20;;;;;;;4.40;1.45;;;;;;;;;;5075284;27;93940;-68
2022/09/16 03:23:04;;;;;;;8.20;2.00;;;;;;;;;;5074522;27;93968;-68
2022/09/16 03:25:42;;;;;;;5.28;1.70;;;;;;;;;;5082356;27;92422;-70
2022/09/16 03:28:12;;;;;;;10.25;1.52;;;;;;;;;;5075316;27;93724;-68
2022/09/16 03:30:44;;;;;;;7.72;1.70;;;;;;;;;;5073923;27;92626;-70
2022/09/16 03:33:21;;;;;;;4.53;1.55;;;;;;;;;;5074578;27;92453;-70
2022/09/16 03:35:48;;;;;;;6.00;1.45;;;;;;;;;;5074838;27;93975;-68
2022/09/16 03:38:15;;;;;;;11.05;1.90;;;;;;;;;;5071786;27;95472;-69
2022/09/16 03:40:42;;;;;;;4.50;1.58;;;;;;;;;;5077284;27;92286;-68
2022/09/16 03:43:12;;;;;;;10.15;1.95;;;;;;;;;;5090139;27;93642;-69
2022/09/16 03:45:41;;;;;;;8.55;1.83;;;;;;;;;;5093718;27;92461;-69
2022/09/16 03:48:08;;;;;;;5.40;1.92;;;;;;;;;;5094731;27;92994;-68
2022/09/16 03:50:35;;;;;;;4.00;1.30;;;;;;;;;;5094796;27;94044;-69
2022/09/16 03:53:01;;;;;;;4.30;1.35;;;;;;;;;;5096533;27;92871;-68
2022/09/16 03:55:28;;;;;;;6.97;1.45;;;;;;;;;;5095460;27;93617;-68
2022/09/16 03:57:54;;;;;;;6.07;1.95;;;;;;;;;;5077795;27;94115;-68
2022/09/16 04:00:21;;;;;;;10.43;1.60;;;;;;;;;;5080804;27;92772;-68
2022/09/16 04:02:48;;;;;;;5.18;1.52;;;;;;;;;;5075932;27;96503;-68
2022/09/16 04:05:14;;;;;;;5.18;1.52;;;;;;;;;;5077537;27;92397;-69
2022/09/16 04:07:40;;;;;;;4.95;1.30;;;;;;;;;;5077219;27;92835;-69
2022/09/16 04:10:07;;;;;;;7.15;1.40;;;;;;;;;;5077868;27;94192;-69
2022/09/16 04:12:33;;;;;;;5.20;1.38;;;;;;;;;;5077514;27;92383;-69
2022/09/16 04:14:59;;;;;;;4.40;1.35;;;;;;;;;;5076210;27;92619;-69
2022/09/16 04:17:26;;;;;;;5.18;1.35;;;;;;;;;;5096317;27;94170;-69
2022/09/16 04:19:52;;;;;;;3.53;1.60;;;;;;;;;;5098106;27;91737;-69
2022/09/16 04:22:19;;;;;;;9.38;1.67;;;;;;;;;;5084289;27;93197;-69
2022/09/16 04:24:45;;;;;;;11.15;1.50;;;;;;;;;;5090705;27;92432;-69
2022/09/16 04:27:11;;;;;;;7.25;1.67;;;;;;;;;;5075640;27;94886;-69
2022/09/16 04:29:37;;;;;;;4.25;1.27;;;;;;;;;;5080151;27;92527;-69
2022/09/16 04:32:04;;;;;;;16.67;1.48;;;;;;;;;;5097596;27;93144;-69
2022/09/16 04:34:31;;;;;;;2.88;1.60;;;;;;;;;;5079983;27;92795;-69
2022/09/16 04:36:57;;;;;;;5.22;1.10;;;;;;;;;;5089386;27;94380;-69
2022/09/16 04:39:24;;;;;;;4.93;1.33;;;;;;;;;;5076891;27;92467;-69
2022/09/16 04:41:50;;;;;;;6.25;1.88;;;;;;;;;;5075802;27;92944;-69
2022/09/16 04:44:17;;;;;;;3.88;1.55;;;;;;;;;;5080464;27;92135;-69
2022/09/16 04:46:43;;;;;;;5.18;1.45;;;;;;;;;;5077300;27;93202;-69
2022/09/16 04:49:11;;;;;;;9.50;1.30;;;;;;;;;;5075771;27;93310;-70
2022/09/16 04:51:37;;;;;;;2.55;1.13;;;;;;;;;;5074557;27;95446;-70
2022/09/16 04:54:04;;;;;;;4.78;1.30;;;;;;;;;;5076877;27;95331;-70
2022/09/16 04:56:31;;;;;;;5.32;1.35;;;;;;;;;;5075350;27;92316;-70
2022/09/16 04:58:58;;;;;;;4.18;1.20;;;;;;;;;;5077104;27;92458;-70
2022/09/16 05:01:26;;;;;;;3.22;1.42;;;;;;;;;;5076898;27;93190;-69
2022/09/16 05:03:54;;;;;;;5.75;1.50;;;;;;;;;;5074172;27;93720;-69
2022/09/16 05:06:24;;;;;;;3.05;1.45;;;;;;;;;;5078734;27;92393;-70
2022/09/16 05:08:51;;;;;;;6.75;1.20;;;;;;;;;;5076730;27;93358;-70
2022/09/16 05:11:22;;;;;;;8.57;1.63;;;;;;;;;;5076472;27;92455;-70
2022/09/16 05:13:48;;;;;;;6.72;1.65;;;;;;;;;;5075822;27;93677;-69
2022/09/16 05:16:15;;;;;;;9.57;1.80;;;;;;;;;;5072563;27;96692;-70
2022/09/16 05:18:43;;;;;;;10.07;1.50;;;;;;;;;;5076084;27;94463;-69
2022/09/16 05:21:13;;;;;;;4.90;1.30;;;;;;;;;;5080438;27;92843;-70
2022/09/16 05:23:42;;;;;;;5.45;1.63;;;;;;;;;;5078958;27;94227;-69
2022/09/16 05:26:14;;;;;;;5.40;1.40;;;;;;;;;;5076430;27;93218;-70
2022/09/16 05:28:40;;;;;;;6.80;1.42;;;;;;;;;;5079257;27;92848;-69
2022/09/16 05:31:07;;;;;;;5.60;1.30;;;;;;;;;;5078278;27;92558;-69
2022/09/16 05:33:34;;;;;;;11.00;1.90;;;;;;;;;;5075512;27;94052;-69
2022/09/16 05:36:07;;;;;;;6.13;1.73;;;;;;;;;;5074151;27;94335;-69
2022/09/16 05:38:34;;;;;;;4.85;1.70;;;;;;;;;;5074198;27;93222;-69
2022/09/16 05:41:01;;;;;;;5.93;1.52;;;;;;;;;;5074744;27;94706;-69
2022/09/16 05:43:28;;;;;;;5.18;1.48;;;;;;;;;;5076156;27;93295;-69
2022/09/16 05:45:54;;;;;;;11.20;2.40;;;;;;;;;;5076448;27;92522;-69
2022/09/16 05:48:21;;;;;;;5.00;1.83;;;;;;;;;;5076635;27;93219;-69
2022/09/16 05:50:51;;;;;;;8.35;1.90;;;;;;;;;;5085488;27;92546;-69
2022/09/16 05:53:18;;;;;;;7.57;2.13;;;;;;;;;;5074550;27;96406;-69
2022/09/16 05:55:56;;;;;;;4.85;1.40;;;;;;;;;;5076375;27;94163;-69
2022/09/16 05:58:23;;;;;;;7.30;1.60;;;;;;;;;;5076043;27;92045;-69
2022/09/16 06:00:50;;;;;;;6.35;1.17;;;;;;;;;;5074998;27;92502;-69
2022/09/16 06:03:16;;;;;;;7.47;2.00;;;;;;;;;;5077977;27;92882;-68
2022/09/16 06:05:43;;;;;;;3.35;1.60;;;;;;;;;;5083245;27;94937;-68
2022/09/16 06:08:11;;;;;;;6.68;1.70;;;;;;;;;;5075047;27;95320;-71
2022/09/16 06:10:38;;;;;;;2.95;1.40;;;;;;;;;;5078157;27;93458;-69
2022/09/16 06:13:05;;;;;;;4.82;1.67;;;;;;;;;;5074420;27;92916;-69
2022/09/16 06:15:31;;;;;;;5.50;1.65;;;;;;;;;;5075655;27;94181;-69
2022/09/16 06:17:57;;;;;;;7.07;1.80;;;;;;;;;;5074905;27;92458;-70
2022/09/16 06:20:29;;;;;;;6.57;1.83;;;;;;;;;;5075100;27;92831;-69
2022/09/16 06:22:55;;;;;;;3.35;1.70;;;;;;;;;;5075505;27;92152;-69
2022/09/16 06:25:22;;;;;;;7.05;1.60;;;;;;;;;;5075722;27;92584;-70
2022/09/16 06:27:48;;;;;;;6.57;2.75;;;;;;;;;;5073974;27;93045;-69
2022/09/16 06:30:14;;;;;;;12.23;1.75;;;;;;;;;;5074042;27;95588;-68
2022/09/16 06:32:40;;;;;;;6.90;1.75;;;;;;;;;;5080520;27;92304;-68
2022/09/16 06:35:07;;;;;;;6.35;1.55;;;;;;;;;;5094673;27;93311;-68
2022/09/16 06:37:33;;;;;;;7.22;1.75;;;;;;;;;;5095460;27;92319;-68
2022/09/16 06:40:00;;;;;;;5.88;2.00;;;;;;;;;;5095981;27;93980;-67
2022/09/16 06:42:27;;;;;;;7.57;1.60;;;;;;;;;;5095182;27;94066;-67
2022/09/16 06:45:02;;;;;;;8.05;1.50;;;;;;;;;;5077663;27;92482;-67
2022/09/16 06:47:28;;;;;;;7.80;1.50;;;;;;;;;;5095602;27;92920;-69
2022/09/16 06:49:55;;;;;;;3.30;1.63;;;;;;;;;;5095452;27;93238;-67
2022/09/16 06:52:22;;;;;;;9.02;1.85;;;;;;;;;;5096567;27;92323;-67
2022/09/16 06:54:49;;;;;;;6.93;1.63;;;;;;;;;;5096417;27;94770;-68
2022/09/16 06:57:18;;;;;;;8.77;1.73;;;;;;;;;;5095242;27;92521;-68
2022/09/16 06:59:45;;;;;;;7.07;1.92;;;;;;;;;;5096013;27;93886;-67
2022/09/16 07:02:11;;;;;;;10.00;1.75;;;;;;;;;;5095166;27;94131;-68
2022/09/16 07:04:37;;;;;;;9.05;1.85;;;;;;;;;;5095958;27;92572;-67
2022/09/16 07:07:04;;;;;;;10.23;1.90;;;;;;;;;;5095258;27;92840;-68
2022/09/16 07:09:35;;;;;;;4.07;1.38;;;;;;;;;;5094101;27;93134;-68
2022/09/16 07:12:01;;;;;;;6.25;1.80;;;;;;;;;;5087447;27;91731;-67
2022/09/16 07:14:28;;;;;;;8.65;1.70;;;;;;;;;;5074940;27;92484;-68
2022/09/16 07:16:54;;;;;;;8.98;1.70;;;;;;;;;;5076472;27;93297;-68
2022/09/16 07:19:21;;;;;;;8.50;2.00;;;;;;;;;;5093764;27;94786;-68
2022/09/16 07:21:47;;;;;;;5.63;1.50;;;;;;;;;;5093235;27;93110;-68
2022/09/16 07:24:14;;;;;;;6.20;2.00;;;;;;;;;;5093896;27;92486;-68
2022/09/16 07:26:41;;;;;;;5.35;1.42;;;;;;;;;;5095514;27;93889;-67
2022/09/16 07:29:09;;;;;;;8.57;2.05;;;;;;;;;;5097033;27;93180;-68
2022/09/16 07:31:36;;;;;;;8.13;2.03;;;;;;;;;;5078007;27;92704;-68
2022/09/16 07:34:03;;;;;;;3.53;1.52;;;;;;;;;;5092046;27;92816;-68
2022/09/16 07:36:35;;;;;;;5.03;1.60;;;;;;;;;;5090825;27;93289;-68
2022/09/16 07:39:02;;;;;;;3.45;1.45;;;;;;;;;;5081118;27;92967;-68
2022/09/16 07:41:30;;;;;;;5.68;1.58;;;;;;;;;;5077523;27;93557;-68
2022/09/16 07:43:58;;;;;;;5.07;1.08;;;;;;;;;;5075168;27;94818;-68
2022/09/16 07:46:26;;;;;;;7.35;1.52;;;;;;;;;;5077543;27;95492;-68
2022/09/16 07:48:53;;;;;;;6.40;1.48;;;;;;;;;;5077068;27;93436;-68
2022/09/16 07:51:21;;;;;;;7.05;1.48;;;;;;;;;;5076124;27;92451;-68
2022/09/16 07:53:51;;;;;;;9.75;1.42;;;;;;;;;;5077445;27;93022;-66
2022/09/16 07:56:19;;;;;;;4.28;1.30;;;;;;;;;;5077272;27;94325;-68
2022/09/16 07:58:46;;;;;;;2.38;1.30;;;;;;;;;;5080314;27;92432;-68
2022/09/16 08:01:16;;;;;;;8.75;1.42;;;;;;;;;;5078623;27;93467;-68
2022/09/16 08:03:44;;;;;;;5.68;1.30;;;;;;;;;;5077946;27;92503;-68
2022/09/16 08:06:12;;;;;;;7.65;1.35;;;;;;;;;;5077715;27;92919;-68
2022/09/16 08:08:38;;;;;;;6.63;1.52;;;;;;;;;;5075869;27;97940;-69
2022/09/16 08:11:05;;;;;;;2.90;1.23;;;;;;;;;;5078184;27;92563;-68
2022/09/16 08:13:32;;;;;;;8.82;1.83;;;;;;;;;;5076738;27;92857;-68
2022/09/16 08:16:00;;;;;;;3.63;1.50;;;;;;;;;;5077445;27;94434;-69
2022/09/16 08:18:27;;;;;;;4.32;1.30;;;;;;;;;;5077261;27;92456;-69
2022/09/16 08:20:53;;;;;;;11.07;2.10;;;;;;;;;;5078948;27;92910;-69
2022/09/16 08:23:20;;;;;;;6.25;1.33;;;;;;;;;;5077099;27;92484;-69
2022/09/16 08:25:46;;;;;;;5.30;1.40;;;;;;;;;;5077765;27;92990;-69
2022/09/16 08:28:16;;;;;;;4.60;1.13;;;;;;;;;;5075736;27;94189;-69
2022/09/16 08:30:42;;;;;;;4.10;1.08;;;;;;;;;;5094203;27;92410;-69
2022/09/16 08:33:09;;;;;;;8.73;1.38;;;;;;;;;;5089905;27;95107;-69
2022/09/16 08:35:35;;;;;;;6.50;1.80;;;;;;;;;;5076982;27;93323;-69
2022/09/16 08:38:02;;;;;;;4.20;1.35;;;;;;;;;;5076656;27;92320;-69
2022/09/16 08:40:32;;;;;;;5.25;1.35;;;;;;;;;;5076722;27;93842;-69
2022/09/16 08:43:01;;;;;;;3.35;1.10;;;;;;;;;;5080031;27;95706;-68
2022/09/16 08:45:43;;;;;;;4.72;1.17;;;;;;;;;;5076722;27;92900;-69
2022/09/16 08:48:24;;;;;;;2.35;0.95;;;;;;;;;;5076646;27;94785;-69
2022/09/16 08:50:55;;;;;;;1.90;1.00;;;;;;;;;;5077384;27;91655;-69
2022/09/16 08:53:25;;;;;;;4.20;1.08;;;;;;;;;;5077018;27;93059;-69
2022/09/16 08:55:52;;;;;;;5.03;1.00;;;;;;;;;;5076056;27;93139;-68
2022/09/16 08:58:23;;;;;;;3.78;1.60;;;;;;;;;;5077909;27;94805;-69
2022/09/16 09:00:55;;;;;;;4.30;1.25;;;;;;;;;;5096649;27;95467;-68
2022/09/16 09:03:38;;;;;;;3.28;1.00;;;;;;;;;;5097178;27;94100;-69
2022/09/16 09:06:04;;;;;;;;;;;;;;;;;;5100098;27;92425;-69
2022/09/16 09:08:38;;;;;;;3.53;1.50;;;;;;;;;;5097547;27;118106;-69
2022/09/16 09:11:25;;;;;;;1.83;1.10;;;;;;;;;;5098006;27;92374;-69
2022/09/16 09:14:10;;;;;;;3.00;1.20;;;;;;;;;;5096772;27;93162;-67
2022/09/16 09:16:55;;;;;;;7.53;1.98;;;;;;;;;;5078203;27;93006;-67
2022/09/16 09:19:27;;;;;;;9.77;1.60;;;;;;;;;;5096659;27;92466;-68
2022/09/16 09:21:56;;;;;;;5.18;1.85;;;;;;;;;;5095395;27;94034;-69
2022/09/16 09:24:42;;;;;;;8.95;1.50;;;;;;;;;;5094527;27;96542;-68
2022/09/16 09:27:16;;;;;;;4.93;1.15;;;;;;;;;;5089072;27;92582;-67
2022/09/16 09:29:43;;;;;;;4.53;1.40;;;;;;;;;;5078854;27;93836;-67
2022/09/16 09:32:38;;;;;;;8.65;1.58;;;;;;;;;;5076201;27;92475;-68
2022/09/16 09:35:30;;;;;;;8.93;1.92;;;;;;;;;;5061186;27;92334;-67
2022/09/16 09:38:16;;;;;;;7.57;1.52;;;;;;;;;;5074623;27;93595;-68
2022/09/16 09:40:51;;;;;;;4.75;1.92;;;;;;;;;;5075477;27;92509;-67
2022/09/16 09:43:19;;;;;;;3.40;1.35;;;;;;;;;;5076363;27;93013;-68
2022/09/16 09:45:57;;;;;;;3.85;1.10;;;;;;;;;;5074144;27;93231;-68
2022/09/16 09:48:26;;;;;;;3.85;1.40;;;;;;;;;;5076701;27;92429;-68
2022/09/16 09:50:53;;;;;;;3.40;1.50;;;;;;;;;;5072672;27;94710;-67
2022/09/16 09:53:27;;;;;;;3.45;1.17;;;;;;;;;;5078388;27;93254;-68
2022/09/16 09:55:57;;;;;;;4.30;1.10;;;;;;;;;;5074981;27;92888;-67
2022/09/16 09:58:33;;;;;;;3.30;1.05;;;;;;;;;;5075059;27;94189;-68
2022/09/16 10:01:00;;;;;;;4.10;1.17;;;;;;;;;;5074913;27;92446;-68
2022/09/16 10:03:27;;;;;;;3.15;0.90;;;;;;;;;;5075347;27;93121;-67
2022/09/16 10:05:53;;;;;;;2.25;0.98;;;;;;;;;;5075066;27;94094;-67
2022/09/16 10:08:20;;;;;;;2.28;1.20;;;;;;;;;;5075852;27;91928;-67
2022/09/16 10:10:48;;;;;;;4.32;1.20;;;;;;;;;;5075634;27;93271;-67
2022/09/16 10:13:16;;;;;;;2.03;0.77;;;;;;;;;;5078199;27;94223;-67
2022/09/16 10:15:42;;;;;;;2.55;0.90;;;;;;;;;;5073509;27;94761;-67
2022/09/16 10:18:22;;;;;;;2.78;0.80;;;;;;;;;;5075817;27;94083;-69
2022/09/16 10:20:58;;;;;;;3.30;1.35;;;;;;;;;;5074944;27;92602;-67
2022/09/16 10:23:24;;;;;;;1.90;1.30;;;;;;;;;;5074617;27;92886;-66
2022/09/16 10:26:02;;;;;;;1.88;1.02;;;;;;;;;;5074221;27;93273;-67
2022/09/16 10:28:29;;;;;;;0.93;0.73;;;;;;;;;;5075134;27;92464;-67
2022/09/16 10:30:59;;;;;;;3.10;1.50;;;;;;;;;;5075383;27;92911;-67
2022/09/16 10:33:27;;;;;;;1.15;0.85;;;;;;;;;;5074749;27;91746;-67
2022/09/16 10:35:59;;;;;;;2.50;0.80;;;;;;;;;;5078987;27;92721;-67
2022/09/16 10:38:32;;;;;;;3.53;0.77;;;;;;;;;;5075791;27;94727;-68
2022/09/16 10:41:03;;;;;;;2.33;0.82;;;;;;;;;;5071989;27;95273;-67
2022/09/16 10:43:30;;;;;;;1.25;0.90;;;;;;;;;;5074846;27;95314;-67
2022/09/16 10:45:56;;;;;;;2.75;0.95;;;;;;;;;;5075141;27;92483;-68
2022/09/16 10:48:27;;;;;;;2.15;0.82;;;;;;;;;;5073343;27;92466;-68
2022/09/16 10:50:56;;;;;;;4.63;1.23;;;;;;;;;;5074970;27;93844;-67
2022/09/16 10:53:26;;;;;;;2.83;0.98;;;;;;;;;;5074839;27;93576;-68
2022/09/16 10:55:56;;;;;;;2.83;1.00;;;;;;;;;;5073858;27;93041;-67
2022/09/16 10:58:23;;;;;;;2.15;1.02;;;;;;;;;;5078333;27;92035;-67
2022/09/16 11:00:49;;;;;;;2.08;1.00;;;;;;;;;;5073149;27;92593;-68
2022/09/16 11:03:34;;;;;;;2.20;0.95;;;;;;;;;;5077474;27;92964;-69
2022/09/16 11:06:03;;;;;;;3.25;1.02;;;;;;;;;;5077293;27;96664;-69
2022/09/16 11:08:35;;;;;;;2.17;1.10;;;;;;;;;;5078434;27;92504;-68
2022/09/16 11:11:06;;;;;;;1.45;0.88;;;;;;;;;;5078414;27;93075;-67
2022/09/16 11:13:41;;;;;;;1.63;0.95;;;;;;;;;;5078156;27;93356;-68
2022/09/16 11:16:29;;;;;;;3.70;1.05;;;;;;;;;;5077503;27;92913;-67
2022/09/16 11:19:10;;;;;;;4.15;0.98;;;;;;;;;;5092971;27;92769;-68
2022/09/16 11:21:57;;;;;;;1.85;0.93;;;;;;;;;;5101205;27;93463;-68
2022/09/16 11:24:29;;;;;;;6.47;1.20;;;;;;;;;;5082732;27;94375;-67
2022/09/16 11:27:05;;;;;;;4.97;1.27;;;;;;;;;;5078495;27;93211;-67
2022/09/16 11:29:50;;;;;;;3.28;0.93;;;;;;;;;;5078007;27;92466;-68
2022/09/16 11:32:19;;;;;;;4.60;1.08;;;;;;;;;;5076520;27;94694;-68
2022/09/16 11:35:05;;;;;;;9.20;1.42;;;;;;;;;;5078021;27;93487;-68
2022/09/16 11:37:35;;;;;;;5.47;1.90;;;;;;;;;;5076741;27;92783;-68
2022/09/16 11:40:21;;;;;;;9.68;1.48;;;;;;;;;;5078533;27;93917;-67
2022/09/16 11:43:06;;;;;;;4.35;1.20;;;;;;;;;;5080927;27;93612;-67
2022/09/16 11:45:38;;;;;;;6.13;1.58;;;;;;;;;;5101789;27;92428;-68
2022/09/16 11:48:07;;;;;;;8.73;1.47;;;;;;;;;;5084689;27;94508;-68
2022/09/16 11:50:48;;;;;;;5.65;1.33;;;;;;;;;;5076992;27;92056;-67
2022/09/16 11:53:33;;;;;;;2.85;1.17;;;;;;;;;;5078487;27;93220;-67
2022/09/16 11:56:17;;;;;;;2.83;1.10;;;;;;;;;;5077227;27;94146;-68
2022/09/16 11:58:59;;;;;;;1.45;1.00;;;;;;;;;;5075404;27;94847;-68
2022/09/16 12:01:45;;;;;;;4.03;1.65;;;;;;;;;;5077754;27;95290;-68
2022/09/16 12:04:21;;;;;;;5.97;1.55;;;;;;;;;;5077423;27;94067;-68
2022/09/16 12:06:54;;;;;;;5.25;1.15;;;;;;;;;;5077847;27;92313;-68
2022/09/16 12:09:20;;;;;;;;;;;;;;;;;;5081251;27;92831;-68
2022/09/16 12:11:51;;;;;;;2.00;1.15;;;;;;;;;;5077298;27;118123;-68
2022/09/16 12:14:26;;;;;;;5.75;1.38;;;;;;;;;;5077047;27;93145;-68
2022/09/16 12:16:56;;;;;;;5.53;1.30;;;;;;;;;;5059589;27;92712;-68
2022/09/16 12:19:26;;;;;;;5.38;1.52;;;;;;;;;;5097933;27;92505;-67
2022/09/16 12:22:05;;;;;;;10.52;1.60;;;;;;;;;;5097102;27;92769;-68
2022/09/16 12:24:41;;;;;;;4.38;1.40;;;;;;;;;;5096749;27;96621;-68
2022/09/16 12:27:13;;;;;;;6.25;1.38;;;;;;;;;;5097070;27;92547;-68
2022/09/16 12:29:49;;;;;;;9.15;1.52;;;;;;;;;;5100452;27;93172;-68
2022/09/16 12:32:25;;;;;;;4.78;1.40;;;;;;;;;;5096961;27;92759;-68
2022/09/16 12:34:54;;;;;;;7.75;2.10;;;;;;;;;;5097251;27;93032;-68
2022/09/16 12:37:25;;;;;;;4.43;1.40;;;;;;;;;;5098371;27;94104;-68
2022/09/16 12:39:52;;;;;;;7.40;1.95;;;;;;;;;;5096705;27;92469;-68
2022/09/16 12:42:24;;;;;;;4.60;1.40;;;;;;;;;;5098723;27;93962;-68
2022/09/16 12:45:09;;;;;;;9.57;2.22;;;;;;;;;;5097819;27;94134;-68
2022/09/16 12:47:35;;;;;;;6.53;1.70;;;;;;;;;;5085120;27;93019;-67
2022/09/16 12:50:15;;;;;;;4.60;1.60;;;;;;;;;;5074909;27;94846;-68
2022/09/16 12:52:44;;;;;;;6.65;1.90;;;;;;;;;;5080263;27;94152;-68
2022/09/16 12:55:10;;;;;;;7.03;1.50;;;;;;;;;;5076693;27;92745;-68
2022/09/16 12:57:42;;;;;;;7.15;1.48;;;;;;;;;;5076154;27;93381;-68
2022/09/16 13:00:12;;;;;;;8.57;1.70;;;;;;;;;;5077678;27;92392;-68
2022/09/16 13:02:52;;;;;;;7.38;1.52;;;;;;;;;;5076389;27;95493;-68
2022/09/16 13:05:18;;;;;;;10.93;2.38;;;;;;;;;;5077277;27;94182;-67
2022/09/16 13:07:50;;;;;;;8.50;2.33;;;;;;;;;;5076475;27;91670;-67
2022/09/16 13:10:18;;;;;;;7.65;2.08;;;;;;;;;;5077350;27;93079;-67
2022/09/16 13:13:02;;;;;;;6.78;2.10;;;;;;;;;;5076671;27;94462;-67
2022/09/16 13:15:31;;;;;;;7.47;1.95;;;;;;;;;;5077994;27;94919;-67
2022/09/16 13:18:13;;;;;;;12.98;1.92;;;;;;;;;;5090558;27;94352;-67
2022/09/16 13:20:40;;;;;;;4.75;1.52;;;;;;;;;;5097665;27;92402;-67
2022/09/16 13:23:16;;;;;;;5.18;1.50;;;;;;;;;;5096724;27;93787;-67
2022/09/16 13:25:46;;;;;;;6.63;1.77;;;;;;;;;;5096017;27;94378;-67
2022/09/16 13:28:24;;;;;;;5.38;2.22;;;;;;;;;;5096470;27;92435;-68
2022/09/16 13:30:50;;;;;;;8.07;1.80;;;;;;;;;;5096390;27;93782;-68
2022/09/16 13:33:17;;;;;;;6.88;2.05;;;;;;;;;;5096927;27;92868;-68
2022/09/16 13:35:45;;;;;;;7.60;1.52;;;;;;;;;;5095826;27;92559;-68
2022/09/16 13:38:17;;;;;;;11.30;2.00;;;;;;;;;;5099376;27;92821;-68
2022/09/16 13:40:55;;;;;;;9.98;2.03;;;;;;;;;;5094936;27;94801;-68
2022/09/16 13:43:27;;;;;;;11.68;2.05;;;;;;;;;;5095660;27;95439;-68
2022/09/16 13:46:05;;;;;;;12.68;2.20;;;;;;;;;;5096759;27;94341;-68
2022/09/16 13:48:43;;;;;;;5.10;1.60;;;;;;;;;;5094998;27;92429;-68
2022/09/16 13:51:14;;;;;;;5.72;1.52;;;;;;;;;;5074413;27;94161;-68
2022/09/16 13:53:44;;;;;;;5.15;1.65;;;;;;;;;;5075104;27;93403;-68
2022/09/16 13:56:31;;;;;;;10.30;1.52;;;;;;;;;;5075265;27;94314;-69
2022/09/16 13:58:57;;;;;;;8.55;1.80;;;;;;;;;;5074853;27;92972;-68
2022/09/16 14:01:47;;;;;;;6.95;1.30;;;;;;;;;;5078819;27;93290;-67
2022/09/16 14:04:43;;;;;;;10.77;3.42;;;;;;;;;;5071559;27;93256;-67
2022/09/16 14:07:25;;;;;;;8.55;1.70;;;;;;;;;;5073569;27;95824;-68
2022/09/16 14:09:51;;;;;;;8.07;1.77;;;;;;;;;;5088292;27;93384;-68
2022/09/16 14:12:20;;;;;;;5.65;1.58;;;;;;;;;;5095317;27;93095;-68
2022/09/16 14:14:46;;;;;;;4.43;1.20;;;;;;;;;;5095693;27;93365;-68
2022/09/16 14:17:15;;;;;;;7.60;1.40;;;;;;;;;;5095168;27;92428;-68
2022/09/16 14:19:45;;;;;;;7.55;1.27;;;;;;;;;;5088656;27;93621;-68
2022/09/16 14:22:11;;;;;;;13.43;1.90;;;;;;;;;;5075486;27;93215;-68
2022/09/16 14:24:39;;;;;;;3.63;1.50;;;;;;;;;;5077841;27;91690;-68
2022/09/16 14:27:17;;;;;;;5.72;1.75;;;;;;;;;;5074752;27;94387;-68
2022/09/16 14:29:52;;;;;;;5.68;1.17;;;;;;;;;;5075793;27;92945;-68
2022/09/16 14:32:19;;;;;;;10.18;1.60;;;;;;;;;;5073914;27;94807;-68
2022/09/16 14:34:45;;;;;;;8.90;1.35;;;;;;;;;;5074776;27;93567;-68
2022/09/16 14:37:15;;;;;;;9.57;1.80;;;;;;;;;;5075957;27;92463;-68
2022/09/16 14:39:42;;;;;;;8.90;1.65;;;;;;;;;;5080211;27;93915;-67
2022/09/16 14:42:13;;;;;;;8.73;1.92;;;;;;;;;;5095338;27;93089;-68
2022/09/16 14:44:41;;;;;;;10.43;1.70;;;;;;;;;;5098504;27;92431;-68
2022/09/16 14:47:08;;;;;;;10.57;1.83;;;;;;;;;;5094008;27;94547;-68
2022/09/16 14:49:46;;;;;;;5.15;1.55;;;;;;;;;;5095481;27;91683;-68
2022/09/16 14:52:16;;;;;;;10.85;2.28;;;;;;;;;;5096338;27;93163;-68
2022/09/16 14:54:43;;;;;;;9.98;2.50;;;;;;;;;;5094749;27;93293;-67
2022/09/16 14:57:13;;;;;;;32.22;2.70;;;;;;;;;;5093484;27;94737;-68
2022/09/16 14:59:43;;;;;;;9.52;2.22;;;;;;;;;;5096056;27;96547;-68
2022/09/16 15:02:19;;;;;;;6.45;1.92;;;;;;;;;;5094995;27;94311;-67
2022/09/16 15:04:47;;;;;;;18.23;2.63;;;;;;;;;;5095934;27;92271;-67